Time;durP1;ratioP1;P1;durP2;ratioP2;P2;SDS_P1;SDS_P2;PMS_P1;PMS_P2;Temp;Humidity;BMP_temperature;BMP_pressure;BME280_temperature;BME280_humidity;BME280_pressure;Samples;Min_cycle;Max_cycle;Signal;HPM_P1;HPM_P2
2021/06/06 00:02:16;;;;;;;3.78;2.35;;;15.80;99.90;;;;;;5072392;28;20202;-72
2021/06/06 00:04:44;;;;;;;3.45;2.47;;;15.70;99.90;;;;;;5072311;28;20198;-72
2021/06/06 00:07:12;;;;;;;3.10;2.80;;;15.70;99.90;;;;;;5071760;28;20210;-72
2021/06/06 00:09:39;;;;;;;3.10;2.80;;;15.60;99.90;;;;;;5072313;28;20577;-72
2021/06/06 00:12:09;;;;;;;3.47;3.17;;;15.60;99.90;;;;;;5072530;28;20206;-72
2021/06/06 00:14:38;;;;;;;2.88;2.25;;;15.60;99.90;;;;;;5071590;28;20259;-72
2021/06/06 00:17:07;;;;;;;1.77;1.67;;;15.60;99.90;;;;;;5072448;28;20209;-72
2021/06/06 00:19:35;;;;;;;3.97;2.38;;;15.60;99.90;;;;;;5071273;28;20202;-72
2021/06/06 00:22:02;;;;;;;3.58;2.25;;;15.60;99.90;;;;;;5071924;28;20214;-71
2021/06/06 00:24:31;;;;;;;4.72;2.15;;;15.60;99.90;;;;;;5071950;28;20268;-72
2021/06/06 00:26:58;;;;;;;2.88;2.50;;;15.60;99.90;;;;;;5071994;28;20202;-73
2021/06/06 00:29:27;;;;;;;5.47;2.53;;;15.60;99.90;;;;;;5072212;28;20213;-71
2021/06/06 00:31:54;;;;;;;2.25;2.05;;;15.60;99.90;;;;;;5071918;28;20213;-71
2021/06/06 00:34:21;;;;;;;2.38;2.17;;;15.60;99.90;;;;;;5071424;28;20237;-71
2021/06/06 00:36:47;;;;;;;3.35;2.17;;;15.50;99.90;;;;;;5071217;28;20261;-71
2021/06/06 00:39:14;;;;;;;3.60;2.28;;;15.50;99.90;;;;;;5071739;28;20206;-71
2021/06/06 00:41:42;;;;;;;2.95;2.72;;;15.40;99.90;;;;;;5071226;28;20206;-71
2021/06/06 00:44:09;;;;;;;3.88;3.42;;;15.30;99.90;;;;;;5071606;28;20669;-71
2021/06/06 00:46:38;;;;;;;4.90;4.28;;;15.30;99.90;;;;;;5070824;28;20250;-71
2021/06/06 00:49:05;;;;;;;4.57;2.97;;;15.30;99.90;;;;;;5071755;28;20210;-71
2021/06/06 00:51:40;;;;;;;4.38;2.50;;;15.30;99.90;;;;;;5070869;28;20577;-71
2021/06/06 00:54:11;;;;;;;3.25;2.95;;;15.30;99.90;;;;;;5071228;28;20229;-71
2021/06/06 00:56:39;;;;;;;2.33;1.65;;;15.40;99.90;;;;;;5071212;28;20202;-71
2021/06/06 00:59:07;;;;;;;1.83;1.45;;;15.30;99.90;;;;;;5071232;28;20206;-72
2021/06/06 01:01:33;;;;;;;2.47;1.55;;;15.40;99.90;;;;;;5071206;28;20570;-71
2021/06/06 01:04:02;;;;;;;1.90;1.70;;;15.50;99.90;;;;;;5071019;28;20206;-72
2021/06/06 01:06:31;;;;;;;2.90;1.60;;;15.60;99.90;;;;;;5071306;28;20206;-71
2021/06/06 01:08:58;;;;;;;3.13;1.98;;;15.60;99.90;;;;;;5070819;28;20209;-72
2021/06/06 01:11:36;;;;;;;1.90;1.70;;;15.70;99.90;;;;;;5071515;28;20203;-72
2021/06/06 01:14:07;;;;;;;2.40;1.98;;;15.70;99.90;;;;;;5070914;28;20245;-71
2021/06/06 01:16:38;;;;;;;4.32;2.53;;;15.60;99.90;;;;;;5070606;28;20685;-72
2021/06/06 01:19:12;;;;;;;1.67;1.58;;;15.60;99.90;;;;;;5070711;28;20252;-71
2021/06/06 01:21:51;;;;;;;3.80;2.10;;;15.60;99.90;;;;;;5070617;28;20205;-72
2021/06/06 01:24:28;;;;;;;5.85;2.47;;;15.50;99.90;;;;;;5070815;28;20293;-71
2021/06/06 01:26:58;;;;;;;2.35;1.58;;;15.40;99.90;;;;;;5071317;28;20198;-71
2021/06/06 01:29:40;;;;;;;2.60;1.70;;;15.30;99.90;;;;;;5071154;28;20681;-71
2021/06/06 01:32:12;;;;;;;2.58;1.90;;;15.20;99.90;;;;;;5070737;28;20201;-71
2021/06/06 01:34:43;;;;;;;2.25;1.70;;;15.20;99.90;;;;;;5069923;28;20226;-71
2021/06/06 01:37:13;;;;;;;1.95;1.65;;;15.20;99.90;;;;;;5070707;28;20757;-71
2021/06/06 01:39:45;;;;;;;3.00;2.05;;;15.20;99.90;;;;;;5070511;28;20202;-71
2021/06/06 01:42:15;;;;;;;4.65;1.75;;;15.10;99.90;;;;;;5070650;28;20210;-71
2021/06/06 01:44:46;;;;;;;2.83;1.77;;;15.10;99.90;;;;;;5069964;28;20206;-71
2021/06/06 01:47:17;;;;;;;2.00;1.75;;;15.00;99.90;;;;;;5067928;28;20289;-70
2021/06/06 01:49:48;;;;;;;2.65;1.98;;;15.00;99.90;;;;;;5069746;28;20217;-70
2021/06/06 01:52:15;;;;;;;2.83;2.55;;;14.90;99.90;;;;;;5070540;28;20198;-71
2021/06/06 01:54:44;;;;;;;3.25;1.95;;;14.90;99.90;;;;;;5069936;28;20240;-70
2021/06/06 01:57:17;;;;;;;2.20;1.83;;;14.90;99.90;;;;;;5070423;28;20202;-71
2021/06/06 01:59:49;;;;;;;3.83;2.30;;;14.80;99.90;;;;;;5069898;28;20202;-71
2021/06/06 02:02:15;;;;;;;3.08;2.20;;;14.80;99.90;;;;;;5070144;28;20198;-71
2021/06/06 02:04:42;;;;;;;2.20;1.95;;;14.70;99.90;;;;;;5069618;28;20686;-71
2021/06/06 02:07:14;;;;;;;6.45;2.38;;;14.70;99.90;;;;;;5070322;28;20205;-71
2021/06/06 02:09:47;;;;;;;4.32;2.40;;;14.70;99.90;;;;;;5070026;28;20206;-71
2021/06/06 02:12:13;;;;;;;2.22;2.03;;;14.60;99.90;;;;;;5070019;28;20216;-71
2021/06/06 02:14:43;;;;;;;3.05;1.65;;;14.50;99.90;;;;;;5069898;28;20241;-71
2021/06/06 02:17:13;;;;;;;3.10;1.60;;;14.50;99.90;;;;;;5070459;28;20202;-71
2021/06/06 02:19:41;;;;;;;2.45;2.00;;;14.50;99.90;;;;;;5070006;28;20206;-73
2021/06/06 02:22:11;;;;;;;1.95;1.85;;;14.40;99.90;;;;;;5072687;28;20271;-72
2021/06/06 02:24:39;;;;;;;3.22;1.55;;;14.40;99.90;;;;;;5073548;28;20202;-72
2021/06/06 02:27:13;;;;;;;3.97;3.08;;;14.40;99.90;;;;;;5074503;28;20205;-72
2021/06/06 02:29:50;;;;;;;2.60;2.38;;;14.40;99.90;;;;;;5073522;28;20708;-72
2021/06/06 02:32:23;;;;;;;4.22;2.10;;;14.40;99.90;;;;;;5074177;28;20209;-72
2021/06/06 02:34:57;;;;;;;2.53;2.33;;;14.40;99.90;;;;;;5073701;28;20655;-72
2021/06/06 02:37:29;;;;;;;3.03;2.50;;;14.30;99.90;;;;;;5074267;28;20216;-72
2021/06/06 02:39:59;;;;;;;2.13;1.92;;;14.30;99.90;;;;;;5074316;28;20207;-72
2021/06/06 02:42:31;;;;;;;2.80;2.35;;;14.30;99.90;;;;;;5074144;28;20666;-71
2021/06/06 02:45:00;;;;;;;1.90;1.70;;;14.20;99.90;;;;;;5073616;28;20260;-72
2021/06/06 02:47:32;;;;;;;2.45;2.25;;;14.10;99.90;;;;;;5073582;28;20578;-72
2021/06/06 02:50:02;;;;;;;4.20;2.13;;;14.20;99.90;;;;;;5073532;28;20205;-72
2021/06/06 02:52:39;;;;;;;2.72;2.53;;;14.20;99.90;;;;;;5073924;28;20206;-72
2021/06/06 02:55:10;;;;;;;2.40;2.20;;;14.30;99.90;;;;;;5073295;28;20241;-72
2021/06/06 02:57:41;;;;;;;2.53;2.13;;;14.30;99.90;;;;;;5073360;28;20210;-73
2021/06/06 03:00:14;;;;;;;3.15;2.20;;;14.30;99.90;;;;;;5073257;28;20267;-73
2021/06/06 03:02:44;;;;;;;2.55;2.05;;;14.30;99.90;;;;;;5072862;28;20615;-72
2021/06/06 03:05:18;;;;;;;3.40;2.10;;;14.30;99.90;;;;;;5073543;28;20205;-72
2021/06/06 03:07:48;;;;;;;8.98;2.70;;;14.20;99.90;;;;;;5072995;28;20210;-72
2021/06/06 03:10:16;;;;;;;3.10;2.38;;;14.20;99.90;;;;;;5073419;28;20210;-71
2021/06/06 03:12:47;;;;;;;3.03;2.72;;;14.20;99.90;;;;;;5073136;28;20602;-71
2021/06/06 03:15:17;;;;;;;4.18;2.58;;;14.30;99.90;;;;;;5073079;28;20234;-72
2021/06/06 03:17:50;;;;;;;2.78;2.53;;;14.30;99.90;;;;;;5073105;28;20199;-72
2021/06/06 03:20:20;;;;;;;2.33;2.17;;;14.20;99.90;;;;;;5073610;28;20715;-72
2021/06/06 03:22:49;;;;;;;2.92;2.60;;;14.10;99.90;;;;;;5072707;28;20217;-72
2021/06/06 03:25:24;;;;;;;2.40;2.20;;;14.20;99.90;;;;;;5073243;28;20206;-72
2021/06/06 03:27:52;;;;;;;2.58;2.22;;;14.20;99.90;;;;;;5072641;28;20726;-72
2021/06/06 03:30:31;;;;;;;2.42;2.20;;;14.10;99.90;;;;;;5073088;28;20210;-72
2021/06/06 03:33:00;;;;;;;3.47;2.40;;;14.10;99.90;;;;;;5073009;28;20255;-72
2021/06/06 03:35:26;;;;;;;4.05;3.00;;;14.00;99.90;;;;;;5073162;28;20237;-72
2021/06/06 03:37:53;;;;;;;3.17;2.38;;;13.90;99.90;;;;;;5072597;28;20681;-72
2021/06/06 03:40:22;;;;;;;2.70;2.50;;;13.90;99.90;;;;;;5073176;28;20206;-71
2021/06/06 03:42:48;;;;;;;2.47;2.28;;;13.80;99.90;;;;;;5072504;28;20198;-71
2021/06/06 03:45:17;;;;;;;3.28;2.17;;;13.90;99.90;;;;;;5072705;28;20202;-72
2021/06/06 03:47:44;;;;;;;3.67;3.25;;;13.90;99.90;;;;;;5072390;28;20202;-71
2021/06/06 03:50:14;;;;;;;4.30;3.22;;;13.90;99.90;;;;;;5072506;28;20217;-72
2021/06/06 03:52:41;;;;;;;3.72;3.33;;;13.80;99.90;;;;;;5072086;28;20213;-72
2021/06/06 03:55:09;;;;;;;5.90;3.25;;;13.80;99.90;;;;;;5072580;28;20256;-71
2021/06/06 03:57:36;;;;;;;12.30;3.70;;;13.70;99.90;;;;;;5072171;28;20206;-72
2021/06/06 04:00:06;;;;;;;3.28;2.97;;;13.70;99.90;;;;;;5072172;28;20209;-72
2021/06/06 04:02:34;;;;;;;4.68;3.50;;;13.70;99.90;;;;;;5072006;28;20233;-71
2021/06/06 04:05:01;;;;;;;3.50;3.20;;;13.70;99.90;;;;;;5072472;28;20260;-72
2021/06/06 04:07:27;;;;;;;2.75;2.55;;;13.70;99.90;;;;;;5072455;28;20213;-71
2021/06/06 04:09:54;;;;;;;3.30;2.92;;;13.70;99.90;;;;;;5072485;28;20206;-72
2021/06/06 04:12:20;;;;;;;2.95;2.55;;;13.60;99.90;;;;;;5072305;28;20206;-72
2021/06/06 04:14:46;;;;;;;3.97;3.58;;;13.60;99.90;;;;;;5071589;28;20279;-72
2021/06/06 04:17:13;;;;;;;3.25;2.95;;;13.70;99.90;;;;;;5071713;28;20594;-72
2021/06/06 04:19:41;;;;;;;3.95;3.28;;;13.60;99.90;;;;;;5072106;28;20206;-72
2021/06/06 04:22:08;;;;;;;5.18;3.70;;;13.60;99.90;;;;;;5072007;28;20264;-72
2021/06/06 04:24:34;;;;;;;6.35;3.65;;;13.50;99.90;;;;;;5071713;28;20252;-72
2021/06/06 04:27:01;;;;;;;4.30;3.67;;;13.60;99.90;;;;;;5071925;28;20689;-72
2021/06/06 04:29:27;;;;;;;4.03;3.55;;;13.60;99.90;;;;;;5071564;28;20206;-71
2021/06/06 04:31:53;;;;;;;4.82;2.83;;;13.60;99.90;;;;;;5071818;28;20213;-71
2021/06/06 04:34:20;;;;;;;3.45;3.10;;;13.40;99.90;;;;;;5071757;28;20229;-72
2021/06/06 04:36:49;;;;;;;3.78;3.38;;;13.50;99.90;;;;;;5071342;28;20213;-72
2021/06/06 04:39:17;;;;;;;4.88;3.15;;;13.60;99.90;;;;;;5071627;28;20203;-72
2021/06/06 04:41:44;;;;;;;6.82;3.75;;;13.60;99.90;;;;;;5071308;28;20202;-71
2021/06/06 04:44:11;;;;;;;4.43;4.03;;;13.70;99.90;;;;;;5070810;28;20260;-71
2021/06/06 04:46:37;;;;;;;6.45;4.18;;;13.80;99.90;;;;;;5071598;28;20229;-72
2021/06/06 04:49:04;;;;;;;4.35;3.83;;;13.70;99.90;;;;;;5071716;28;20202;-71
2021/06/06 04:51:30;;;;;;;6.50;3.60;;;13.70;99.90;;;;;;5070817;28;20206;-72
2021/06/06 04:53:58;;;;;;;4.65;4.25;;;13.70;99.90;;;;;;5070964;28;20241;-71
2021/06/06 04:56:28;;;;;;;3.88;3.53;;;13.80;99.90;;;;;;5071532;28;20206;-71
2021/06/06 04:58:55;;;;;;;3.95;3.55;;;13.70;99.90;;;;;;5071631;28;20202;-71
2021/06/06 05:01:22;;;;;;;4.20;3.60;;;13.80;99.90;;;;;;5071437;28;20206;-70
2021/06/06 05:03:49;;;;;;;6.95;3.30;;;13.90;99.90;;;;;;5070682;28;20691;-71
2021/06/06 05:06:16;;;;;;;4.07;3.67;;;13.90;99.90;;;;;;5071484;28;20210;-70
2021/06/06 05:08:42;;;;;;;5.22;3.25;;;13.80;99.90;;;;;;5070794;28;20233;-71
2021/06/06 05:11:10;;;;;;;3.33;3.03;;;13.80;99.90;;;;;;5071094;28;20209;-71
2021/06/06 05:13:37;;;;;;;5.90;3.15;;;13.80;99.90;;;;;;5070330;28;20670;-71
2021/06/06 05:16:04;;;;;;;2.33;2.13;;;13.90;99.90;;;;;;5071309;28;20217;-71
2021/06/06 05:18:31;;;;;;;3.22;2.92;;;14.00;99.90;;;;;;5070849;28;20263;-70
2021/06/06 05:20:58;;;;;;;2.55;2.35;;;14.10;99.90;;;;;;5070581;28;20674;-71
2021/06/06 05:23:26;;;;;;;4.35;2.60;;;14.20;99.90;;;;;;5071353;28;20256;-70
2021/06/06 05:25:53;;;;;;;3.85;3.08;;;14.20;99.90;;;;;;5070310;28;20256;-70
2021/06/06 05:28:24;;;;;;;3.50;2.92;;;14.20;99.90;;;;;;5070858;28;20202;-71
2021/06/06 05:30:51;;;;;;;3.05;2.65;;;14.30;99.90;;;;;;5070369;28;20240;-70
2021/06/06 05:33:18;;;;;;;2.33;2.13;;;14.40;99.90;;;;;;5070988;28;20213;-73
2021/06/06 05:35:45;;;;;;;5.55;3.55;;;14.50;99.90;;;;;;5070276;28;20240;-70
2021/06/06 05:38:13;;;;;;;5.40;2.50;;;14.50;99.90;;;;;;5070541;28;20217;-70
2021/06/06 05:40:42;;;;;;;5.60;2.60;;;14.50;99.90;;;;;;5069979;28;20202;-70
2021/06/06 05:43:10;;;;;;;2.72;2.53;;;14.60;99.90;;;;;;5070700;28;20678;-70
2021/06/06 05:45:38;;;;;;;5.57;2.92;;;14.60;99.90;;;;;;5070535;28;20301;-70
2021/06/06 05:48:06;;;;;;;4.47;2.30;;;14.60;99.90;;;;;;5070296;28;20232;-70
2021/06/06 05:50:38;;;;;;;2.67;2.17;;;14.70;99.90;;;;;;5070103;28;20220;-70
2021/06/06 05:53:05;;;;;;;4.03;2.35;;;14.80;99.90;;;;;;5070243;28;20598;-70
2021/06/06 05:55:32;;;;;;;2.30;2.13;;;14.80;99.90;;;;;;5069303;28;20225;-69
2021/06/06 05:57:59;;;;;;;3.28;2.65;;;14.80;99.90;;;;;;5070648;28;20202;-71
2021/06/06 06:00:29;;;;;;;3.00;2.35;;;14.80;99.90;;;;;;5070464;28;20259;-71
2021/06/06 06:02:57;;;;;;;6.72;2.58;;;14.90;99.90;;;;;;5071544;28;20225;-69
2021/06/06 06:05:24;;;;;;;2.40;2.05;;;15.00;99.90;;;;;;5078357;28;20202;-69
2021/06/06 06:07:51;;;;;;;3.42;2.20;;;15.00;99.90;;;;;;5074944;28;20260;-69
2021/06/06 06:10:20;;;;;;;3.95;1.92;;;15.20;99.90;;;;;;5071002;28;20225;-70
2021/06/06 06:12:47;;;;;;;3.58;2.60;;;15.20;99.90;;;;;;5076181;28;20202;-70
2021/06/06 06:15:15;;;;;;;5.18;2.33;;;15.30;99.90;;;;;;5072253;28;20234;-74
2021/06/06 06:17:42;;;;;;;2.40;2.03;;;15.40;99.90;;;;;;5062627;28;20667;-75
2021/06/06 06:20:15;;;;;;;2.42;1.88;;;15.50;99.90;;;;;;5069753;28;20213;-73
2021/06/06 06:22:41;;;;;;;2.30;1.80;;;15.60;99.90;;;;;;5072107;28;20213;-73
2021/06/06 06:25:10;;;;;;;8.77;2.55;;;15.70;99.90;;;;;;5080977;28;20202;-75
2021/06/06 06:27:37;;;;;;;3.33;2.63;;;15.80;99.90;;;;;;5080488;28;20259;-73
2021/06/06 06:30:05;;;;;;;5.13;2.58;;;15.90;99.90;;;;;;5076477;28;20206;-74
2021/06/06 06:32:31;;;;;;;3.90;2.53;;;16.00;99.90;;;;;;5083543;28;20228;-73
2021/06/06 06:34:58;;;;;;;2.60;2.38;;;16.00;99.90;;;;;;5070273;28;20226;-71
2021/06/06 06:37:26;;;;;;;8.73;2.10;;;16.20;99.90;;;;;;5084346;28;20206;-71
2021/06/06 06:39:53;;;;;;;5.60;2.13;;;16.30;99.90;;;;;;5070353;28;20206;-70
2021/06/06 06:42:19;;;;;;;3.35;2.30;;;16.50;99.90;;;;;;5071358;28;20206;-70
2021/06/06 06:44:46;;;;;;;4.32;2.72;;;16.50;99.90;;;;;;5069867;28;20198;-70
2021/06/06 06:47:13;;;;;;;2.67;1.90;;;16.70;99.90;;;;;;5069901;28;20221;-70
2021/06/06 06:49:39;;;;;;;2.97;1.98;;;17.00;99.90;;;;;;5064344;28;20205;-71
2021/06/06 06:52:06;;;;;;;2.60;2.10;;;17.20;99.90;;;;;;5071024;28;20256;-70
2021/06/06 06:54:34;;;;;;;3.28;2.15;;;17.20;99.90;;;;;;5072952;28;20229;-73
2021/06/06 06:57:01;;;;;;;3.75;1.77;;;17.30;99.90;;;;;;5069954;28;20210;-74
2021/06/06 06:59:27;;;;;;;2.55;1.90;;;17.30;99.90;;;;;;5070546;28;20233;-70
2021/06/06 07:01:55;;;;;;;2.40;2.05;;;17.40;99.90;;;;;;5071685;28;20205;-70
2021/06/06 07:04:21;;;;;;;2.47;1.77;;;17.50;99.90;;;;;;5071546;28;20569;-73
2021/06/06 07:06:49;;;;;;;3.05;1.85;;;17.70;99.90;;;;;;5073116;28;20201;-70
2021/06/06 07:09:15;;;;;;;1.98;1.77;;;17.80;99.90;;;;;;5075851;28;20235;-75
2021/06/06 07:11:44;;;;;;;4.05;1.85;;;17.90;99.90;;;;;;5071008;28;20211;-73
2021/06/06 07:14:10;;;;;;;2.20;2.00;;;17.90;99.90;;;;;;5074801;28;20233;-75
2021/06/06 07:16:38;;;;;;;2.30;1.50;;;18.00;99.90;;;;;;5070887;28;20256;-70
2021/06/06 07:19:04;;;;;;;2.67;1.58;;;18.20;99.90;;;;;;5076102;28;20217;-71
2021/06/06 07:21:31;;;;;;;1.67;1.42;;;18.40;99.90;;;;;;5071009;28;20214;-72
2021/06/06 07:23:58;;;;;;;1.95;1.67;;;18.50;99.90;;;;;;5074057;28;20444;-71
2021/06/06 07:26:28;;;;;;;3.22;1.63;;;18.60;99.90;;;;;;5074986;28;20210;-72
2021/06/06 07:28:59;;;;;;;1.88;1.55;;;18.70;99.90;;;;;;5076995;28;20197;-72
2021/06/06 07:31:26;;;;;;;3.20;1.75;;;19.00;99.90;;;;;;5075747;28;20213;-74
2021/06/06 07:33:52;;;;;;;1.48;1.35;;;19.30;99.90;;;;;;5078316;28;20220;-75
2021/06/06 07:36:21;;;;;;;2.60;1.70;;;19.30;99.90;;;;;;5076023;28;20251;-72
2021/06/06 07:38:48;;;;;;;1.98;1.63;;;19.20;99.90;;;;;;5071460;28;20696;-71
2021/06/06 07:41:16;;;;;;;1.90;1.70;;;19.40;99.90;;;;;;5070539;28;20205;-75
2021/06/06 07:43:42;;;;;;;2.85;1.67;;;21.40;99.90;;;;;;5080595;28;20205;-73
2021/06/06 07:46:10;;;;;;;4.30;1.65;;;22.10;99.90;;;;;;5072668;28;20214;-72
2021/06/06 07:48:37;;;;;;;2.15;1.58;;;21.70;99.90;;;;;;5084214;28;20206;-70
2021/06/06 07:51:04;;;;;;;1.73;1.48;;;20.80;99.90;;;;;;5082418;28;20270;-70
2021/06/06 07:53:31;;;;;;;1.70;1.48;;;20.60;99.90;;;;;;5085109;28;20205;-71
2021/06/06 07:55:58;;;;;;;1.73;1.50;;;20.70;99.90;;;;;;5078722;28;20259;-72
2021/06/06 07:58:26;;;;;;;3.38;1.65;;;21.60;99.90;;;;;;5073734;28;20206;-71
2021/06/06 08:00:53;;;;;;;4.43;1.73;;;21.70;99.90;;;;;;5073426;28;20198;-71
2021/06/06 08:03:21;;;;;;;3.05;1.60;;;21.70;99.90;;;;;;5076381;28;20584;-69
2021/06/06 08:05:48;;;;;;;1.55;1.33;;;22.50;99.90;;;;;;5076205;28;20210;-70
2021/06/06 08:08:15;;;;;;;3.75;1.95;;;22.00;99.90;;;;;;5079648;28;20254;-70
2021/06/06 08:10:44;;;;;;;1.42;1.10;;;23.10;99.90;;;;;;5077486;28;20213;-69
2021/06/06 08:13:10;;;;;;;4.25;2.00;;;22.80;99.90;;;;;;5077465;28;20209;-70
2021/06/06 08:15:37;;;;;;;2.85;1.52;;;23.10;99.90;;;;;;5071426;28;20735;-70
2021/06/06 08:18:07;;;;;;;1.55;1.45;;;23.50;99.90;;;;;;5071716;28;20669;-69
2021/06/06 08:20:39;;;;;;;1.98;1.23;;;23.30;99.90;;;;;;5070479;28;20259;-70
2021/06/06 08:23:07;;;;;;;2.63;1.25;;;22.50;99.90;;;;;;5071710;28;20214;-70
2021/06/06 08:25:34;;;;;;;2.42;1.98;;;22.00;99.90;;;;;;5071202;28;20241;-71
2021/06/06 08:28:01;;;;;;;1.77;1.42;;;21.70;99.90;;;;;;5071930;28;20202;-69
2021/06/06 08:30:32;;;;;;;2.53;1.70;;;21.10;99.90;;;;;;5071799;28;20670;-69
2021/06/06 08:32:58;;;;;;;2.58;1.40;;;21.10;99.90;;;;;;5063404;28;20210;-70
2021/06/06 08:35:25;;;;;;;3.95;1.55;;;21.30;99.90;;;;;;5072066;28;20221;-70
2021/06/06 08:37:53;;;;;;;4.55;1.48;;;21.40;99.90;;;;;;5071316;28;20214;-69
2021/06/06 08:40:26;;;;;;;1.65;1.52;;;22.20;99.90;;;;;;5071608;28;20209;-71
2021/06/06 08:42:53;;;;;;;2.95;1.90;;;22.40;99.90;;;;;;5071348;28;20210;-70
2021/06/06 08:45:30;;;;;;;2.33;1.30;;;22.90;99.90;;;;;;5071726;28;20202;-70
2021/06/06 08:47:58;;;;;;;2.47;1.60;;;25.10;99.90;;;;;;5071779;28;20198;-71
2021/06/06 08:50:28;;;;;;;3.08;1.48;;;25.30;99.90;;;;;;5070539;28;20727;-71
2021/06/06 08:53:04;;;;;;;1.75;1.30;;;24.30;99.90;;;;;;5071705;28;20214;-70
2021/06/06 08:55:41;;;;;;;1.35;1.15;;;23.10;99.90;;;;;;5070816;28;20234;-70
2021/06/06 08:58:22;;;;;;;1.30;1.20;;;23.40;99.90;;;;;;5071303;28;20228;-70
2021/06/06 09:00:55;;;;;;;2.22;1.40;;;26.40;99.90;;;;;;5070894;28;21108;-69
2021/06/06 09:03:24;;;;;;;2.90;2.00;;;25.40;99.90;;;;;;5071424;28;20198;-69
2021/06/06 09:05:59;;;;;;;0.85;0.85;;;24.80;99.90;;;;;;5071233;28;20236;-70
2021/06/06 09:08:33;;;;;;;1.77;1.45;;;24.90;99.90;;;;;;5071498;28;20205;-70
2021/06/06 09:11:01;;;;;;;2.63;1.10;;;25.00;99.90;;;;;;5071213;28;20203;-70
2021/06/06 09:13:31;;;;;;;1.30;1.20;;;25.40;99.90;;;;;;5070881;28;20700;-70
2021/06/06 09:16:11;;;;;;;2.05;1.40;;;24.80;99.90;;;;;;5071097;28;20252;-71
2021/06/06 09:18:38;;;;;;;1.27;0.95;;;25.30;99.90;;;;;;5070482;28;20198;-70
2021/06/06 09:21:12;;;;;;;1.63;1.52;;;25.20;99.90;;;;;;5071036;28;20202;-71
2021/06/06 09:23:40;;;;;;;2.13;1.02;;;24.60;99.90;;;;;;5070429;28;20236;-70
2021/06/06 09:26:09;;;;;;;1.60;1.25;;;24.50;99.90;;;;;;5070821;28;20218;-70
2021/06/06 09:28:37;;;;;;;1.63;1.38;;;24.80;99.90;;;;;;5070671;28;20216;-70
2021/06/06 09:31:07;;;;;;;3.00;1.83;;;23.70;99.90;;;;;;5070509;28;20255;-70
2021/06/06 09:33:37;;;;;;;2.25;1.75;;;24.50;99.90;;;;;;5070569;28;20574;-70
2021/06/06 09:36:06;;;;;;;2.47;1.13;;;24.70;99.90;;;;;;5070325;28;20249;-71
2021/06/06 09:38:38;;;;;;;1.15;1.05;;;25.50;99.90;;;;;;5070431;28;20206;-71
2021/06/06 09:41:20;;;;;;;1.85;1.25;;;25.10;99.90;;;;;;5070526;28;20202;-69
2021/06/06 09:44:00;;;;;;;1.67;1.52;;;23.70;99.90;;;;;;5070382;28;20214;-70
2021/06/06 09:46:34;;;;;;;1.35;1.25;;;23.40;99.90;;;;;;5070090;28;20206;-70
2021/06/06 09:49:15;;;;;;;1.10;1.00;;;24.30;99.90;;;;;;5070569;28;20675;-69
2021/06/06 09:51:42;;;;;;;2.83;0.90;;;25.00;99.90;;;;;;5070157;28;20759;-70
2021/06/06 09:54:10;;;;;;;0.98;0.98;;;25.30;99.90;;;;;;5070603;28;20206;-70
2021/06/06 09:56:39;;;;;;;4.10;1.10;;;24.00;99.90;;;;;;5069677;28;20206;-69
2021/06/06 09:59:14;;;;;;;1.27;0.93;;;23.00;99.90;;;;;;5070691;28;20205;-69
2021/06/06 10:02:01;;;;;;;1.05;1.00;;;26.20;99.90;;;;;;5069760;28;20206;-69
2021/06/06 10:04:31;;;;;;;1.75;1.20;;;25.50;99.90;;;;;;5070548;28;20550;-69
2021/06/06 10:07:08;;;;;;;2.28;1.05;;;26.50;99.90;;;;;;5070057;28;20202;-69
2021/06/06 10:09:35;;;;;;;3.55;0.98;;;26.60;99.90;;;;;;5069857;28;20201;-70
2021/06/06 10:12:07;;;;;;;1.50;1.40;;;25.90;99.90;;;;;;5070077;28;20670;-69
2021/06/06 10:14:38;;;;;;;3.55;1.52;;;25.90;99.90;;;;;;5069899;28;20234;-70
2021/06/06 10:17:09;;;;;;;1.90;1.55;;;24.40;99.90;;;;;;5068602;28;20221;-69
2021/06/06 10:19:39;;;;;;;1.83;1.10;;;24.50;99.90;;;;;;5068540;28;20209;-69
2021/06/06 10:22:12;;;;;;;1.42;1.25;;;31.40;99.90;;;;;;5075429;28;20217;-69
2021/06/06 10:24:43;;;;;;;1.25;1.15;;;30.50;99.90;;;;;;5078770;28;20589;-69
2021/06/06 10:27:22;;;;;;;1.33;1.23;;;26.70;99.90;;;;;;5069684;28;20751;-69
2021/06/06 10:29:54;;;;;;;1.15;1.05;;;24.60;99.90;;;;;;5069259;28;20281;-72
2021/06/06 10:32:26;;;;;;;1.45;0.90;;;25.80;99.90;;;;;;5069289;28;20201;-71
2021/06/06 10:34:58;;;;;;;1.85;0.95;;;29.50;99.90;;;;;;5068977;28;20781;-72
2021/06/06 10:37:26;;;;;;;55.70;34.72;;;27.20;99.90;;;;;;5068522;28;20194;-71
2021/06/06 10:39:55;;;;;;;93.10;63.22;;;25.60;99.90;;;;;;5069590;28;20210;-70
2021/06/06 10:42:28;;;;;;;19.45;13.55;;;24.30;99.90;;;;;;5069182;28;20224;-70
2021/06/06 10:45:01;;;;;;;11.35;8.73;;;23.60;99.90;;;;;;5069545;28;20214;-70
2021/06/06 10:47:35;;;;;;;28.27;20.10;;;23.50;99.90;;;;;;5067531;28;20210;-70
2021/06/06 10:50:12;;;;;;;5.35;3.53;;;23.60;99.90;;;;;;5073471;28;20202;-72
2021/06/06 10:52:40;;;;;;;3.78;3.10;;;23.80;99.90;;;;;;5073047;28;20281;-69
2021/06/06 10:55:18;;;;;;;4.82;2.33;;;24.50;99.90;;;;;;5073464;28;20226;-70
2021/06/06 10:57:48;;;;;;;1.80;1.35;;;24.90;99.90;;;;;;5070650;28;20209;-70
2021/06/06 11:00:30;;;;;;;2.78;2.28;;;24.20;99.90;;;;;;5072649;28;20260;-70
2021/06/06 11:03:01;;;;;;;5.25;2.45;;;23.70;99.90;;;;;;5080292;28;20276;-71
2021/06/06 11:05:44;;;;;;;3.85;2.10;;;23.30;99.90;;;;;;5077287;28;20226;-71
2021/06/06 11:08:20;;;;;;;1.40;1.30;;;23.40;99.90;;;;;;5081683;28;20557;-71
2021/06/06 11:10:47;;;;;;;1.13;0.90;;;24.00;99.90;;;;;;5071818;28;20210;-70
2021/06/06 11:13:31;;;;;;;2.53;1.63;;;23.90;99.90;;;;;;5072647;28;20628;-69
2021/06/06 11:16:00;;;;;;;3.63;1.92;;;23.70;99.90;;;;;;5075473;28;20683;-72
2021/06/06 11:18:27;;;;;;;2.05;1.42;;;23.40;99.90;;;;;;5079223;28;20201;-70
2021/06/06 11:20:56;;;;;;;2.10;1.08;;;23.20;99.90;;;;;;5078347;28;20902;-70
2021/06/06 11:23:34;;;;;;;1.08;0.98;;;23.10;99.90;;;;;;5078446;28;20622;-70
2021/06/06 11:26:00;;;;;;;1.08;1.00;;;23.30;99.90;;;;;;5076800;28;20205;-71
2021/06/06 11:28:34;;;;;;;1.10;1.10;;;23.40;99.90;;;;;;5076929;28;20210;-71
2021/06/06 11:31:03;;;;;;;1.10;1.00;;;23.70;99.90;;;;;;5076974;28;20206;-71
2021/06/06 11:33:37;;;;;;;2.13;1.95;;;24.10;99.90;;;;;;5078813;28;21221;-70
2021/06/06 11:36:05;;;;;;;1.30;0.95;;;23.80;99.90;;;;;;5077500;28;20244;-75
2021/06/06 11:38:42;;;;;;;1.08;0.93;;;24.00;99.90;;;;;;5073302;28;20206;-69
2021/06/06 11:41:30;;;;;;;2.72;1.08;;;24.20;99.90;;;;;;5075637;28;20206;-71
2021/06/06 11:44:17;;;;;;;1.33;1.23;;;24.20;99.90;;;;;;5075520;28;20699;-69
2021/06/06 11:46:51;;;;;;;1.23;1.13;;;24.90;99.90;;;;;;5070271;28;20206;-70
2021/06/06 11:49:27;;;;;;;1.73;1.38;;;25.40;99.90;;;;;;5077918;28;20210;-71
2021/06/06 11:51:56;;;;;;;1.08;1.00;;;25.60;99.90;;;;;;5078601;28;20747;-71
2021/06/06 11:54:27;;;;;;;1.35;1.25;;;24.90;99.90;;;;;;5079137;28;20205;-73
2021/06/06 11:56:56;;;;;;;1.10;1.00;;;24.40;99.90;;;;;;5072764;28;20202;-72
2021/06/06 11:59:34;;;;;;;3.38;1.00;;;24.10;99.90;;;;;;5073602;28;20209;-72
2021/06/06 12:02:08;;;;;;;1.60;1.38;;;24.10;99.90;;;;;;5074320;28;20198;-72
2021/06/06 12:04:38;;;;;;;2.00;1.00;;;24.60;99.90;;;;;;5073654;28;20206;-72
2021/06/06 12:07:12;;;;;;;1.30;1.13;;;24.70;99.90;;;;;;5074225;28;20605;-70
2021/06/06 12:09:42;;;;;;;2.72;1.00;;;25.20;99.90;;;;;;5071821;28;20197;-71
2021/06/06 12:12:12;;;;;;;1.00;0.90;;;25.80;99.90;;;;;;5073326;28;20218;-71
2021/06/06 12:14:41;;;;;;;1.30;1.20;;;25.60;99.90;;;;;;5067853;28;20197;-70
2021/06/06 12:17:19;;;;;;;1.85;1.23;;;24.80;99.90;;;;;;5084119;28;20209;-72
2021/06/06 12:19:49;;;;;;;1.70;1.00;;;25.10;99.90;;;;;;5079410;28;20213;-71
2021/06/06 12:22:25;;;;;;;1.50;1.40;;;24.40;99.90;;;;;;5077511;28;20237;-71
2021/06/06 12:25:01;;;;;;;3.45;1.10;;;24.20;99.90;;;;;;5091501;28;20303;-72
2021/06/06 12:27:30;;;;;;;2.05;1.20;;;23.80;99.90;;;;;;5072360;28;20198;-73
2021/06/06 12:30:00;;;;;;;1.60;0.98;;;23.80;99.90;;;;;;5085565;28;20212;-72
2021/06/06 12:32:29;;;;;;;1.42;1.33;;;24.10;99.90;;;;;;5076845;28;20211;-71
2021/06/06 12:34:56;;;;;;;2.05;1.05;;;24.50;99.90;;;;;;5079941;28;20234;-72
2021/06/06 12:37:27;;;;;;;0.98;0.85;;;24.60;99.90;;;;;;5076253;28;20255;-73
2021/06/06 12:39:56;;;;;;;1.63;1.27;;;24.90;99.90;;;;;;5071826;28;20202;-72
2021/06/06 12:42:24;;;;;;;1.40;1.10;;;24.90;99.90;;;;;;5071955;28;20233;-73
2021/06/06 12:44:53;;;;;;;1.15;1.10;;;24.80;99.90;;;;;;5065379;28;20206;-73
2021/06/06 12:47:28;;;;;;;0.80;0.80;;;24.60;99.90;;;;;;5071579;28;20665;-72
2021/06/06 12:49:57;;;;;;;1.77;1.65;;;24.30;99.90;;;;;;5071834;28;20205;-72
2021/06/06 12:52:27;;;;;;;2.45;1.85;;;24.40;99.90;;;;;;5071740;28;20563;-72
2021/06/06 12:54:55;;;;;;;1.90;1.30;;;24.40;99.90;;;;;;5071175;28;20701;-73
2021/06/06 12:57:25;;;;;;;1.90;0.90;;;24.60;99.90;;;;;;5071776;28;20301;-72
2021/06/06 13:00:19;;;;;;;1.02;1.02;;;24.70;99.90;;;;;;5071314;28;20256;-72